createdAt,value
2023-05-04T00:01:36.993Z,19.70
2023-05-04T00:04:24.232Z,19.70
2023-05-04T00:07:11.698Z,19.70
2023-05-04T00:10:00.057Z,19.60
2023-05-04T00:12:47.509Z,19.60
2023-05-04T00:15:34.838Z,19.60
2023-05-04T00:18:22.065Z,19.60
2023-05-04T00:21:09.282Z,19.60
2023-05-04T00:23:56.610Z,19.60
2023-05-04T00:26:45.805Z,19.50
2023-05-04T00:29:33.119Z,19.50
2023-05-04T00:32:21.087Z,19.50
2023-05-04T00:35:08.815Z,19.40
2023-05-04T00:37:56.246Z,19.30
2023-05-04T00:40:43.510Z,19.30
2023-05-04T00:43:30.768Z,19.20
2023-05-04T00:46:19.232Z,19.20
2023-05-04T00:49:07.733Z,19.20
2023-05-04T00:51:57.192Z,19.10
2023-05-04T00:54:47.838Z,19.10
2023-05-04T00:57:35.175Z,19.10
2023-05-04T01:00:22.586Z,19.10
2023-05-04T01:03:10.234Z,19.20
2023-05-04T01:06:21.109Z,19.10
2023-05-04T01:09:31.889Z,19.10
2023-05-04T01:12:42.806Z,19.10
2023-05-04T01:15:30.505Z,19.00
2023-05-04T01:18:17.758Z,19.00
2023-05-04T01:21:04.999Z,18.90
2023-05-04T01:23:52.360Z,18.80
2023-05-04T01:26:42.089Z,18.70
2023-05-04T01:29:38.679Z,18.70
2023-05-04T01:32:28.482Z,18.60
2023-05-04T01:35:16.966Z,18.50
2023-05-04T01:38:05.980Z,18.40
2023-05-04T01:40:53.297Z,18.30
2023-05-04T01:43:41.266Z,18.20
2023-05-04T01:46:28.666Z,18.10
2023-05-04T01:49:15.969Z,18.00
2023-05-04T01:52:03.404Z,18.00
2023-05-04T01:54:50.711Z,17.90
2023-05-04T01:57:37.992Z,17.90
2023-05-04T02:00:25.306Z,17.80
2023-05-04T02:03:12.721Z,17.80
2023-05-04T02:06:00.011Z,17.80
2023-05-04T02:08:47.428Z,17.70
2023-05-04T02:11:34.755Z,17.70
2023-05-04T02:14:21.993Z,17.70
2023-05-04T02:17:09.494Z,17.60
2023-05-04T02:19:56.773Z,17.60
2023-05-04T02:22:44.110Z,17.60
2023-05-04T02:25:31.526Z,17.50
2023-05-04T02:28:18.747Z,17.40
2023-05-04T02:31:06.140Z,17.30
2023-05-04T02:33:53.913Z,17.30
2023-05-04T02:36:41.082Z,17.20
2023-05-04T02:39:28.260Z,17.20
2023-05-04T02:42:15.541Z,17.10
2023-05-04T02:45:02.867Z,17.00
2023-05-04T02:47:50.090Z,16.90
2023-05-04T02:50:37.984Z,16.90
2023-05-04T02:53:25.198Z,16.80
2023-05-04T02:56:12.795Z,16.70
2023-05-04T02:59:00.200Z,16.70
2023-05-04T03:01:47.505Z,16.70
2023-05-04T03:04:34.885Z,16.60
2023-05-04T03:07:22.238Z,16.70
2023-05-04T03:10:10.132Z,16.60
2023-05-04T03:12:57.520Z,16.60
2023-05-04T03:15:44.826Z,16.60
2023-05-04T03:21:43.182Z,16.50
2023-05-04T03:24:30.958Z,16.40
2023-05-04T03:27:18.296Z,16.40
2023-05-04T03:30:06.785Z,16.30
2023-05-04T03:32:54.342Z,16.30
2023-05-04T03:35:41.727Z,16.20
2023-05-04T03:38:29.003Z,16.20
2023-05-04T03:41:16.941Z,16.10
2023-05-04T03:44:04.193Z,16.10
2023-05-04T03:46:51.484Z,16.00
2023-05-04T03:49:38.721Z,16.10
2023-05-04T03:52:34.856Z,16.00
2023-05-04T03:55:22.170Z,16.00
2023-05-04T03:58:09.524Z,16.00
2023-05-04T04:00:56.724Z,15.90
2023-05-04T04:03:44.115Z,15.90
2023-05-04T04:06:32.016Z,15.90
2023-05-04T04:09:19.327Z,15.80
2023-05-04T04:12:06.774Z,15.80
2023-05-04T04:14:54.367Z,15.80
2023-05-04T04:17:41.750Z,15.80
2023-05-04T04:20:29.091Z,15.80
2023-05-04T04:23:19.221Z,15.70
2023-05-04T04:26:06.758Z,15.70
2023-05-04T04:28:54.075Z,15.70
2023-05-04T04:31:41.587Z,15.70
2023-05-04T04:34:28.926Z,15.70
2023-05-04T04:37:16.181Z,15.70
2023-05-04T04:40:04.211Z,15.70
2023-05-04T04:42:52.488Z,15.70
2023-05-04T04:45:41.355Z,15.70
2023-05-04T04:48:28.865Z,15.70
2023-05-04T04:51:16.393Z,15.70
2023-05-04T04:54:03.774Z,15.70
2023-05-04T04:56:51.143Z,15.70
2023-05-04T04:59:38.680Z,15.70
2023-05-04T05:02:26.587Z,15.70
2023-05-04T05:05:13.936Z,15.70
2023-05-04T05:08:01.609Z,15.60
2023-05-04T05:10:48.883Z,15.70
2023-05-04T05:13:36.208Z,15.60
2023-05-04T05:16:23.979Z,15.60
2023-05-04T05:19:11.165Z,15.60
2023-05-04T05:21:58.385Z,15.60
2023-05-04T05:24:45.969Z,15.60
2023-05-04T05:27:34.748Z,15.60
2023-05-04T05:30:21.982Z,15.60
2023-05-04T05:33:10.278Z,15.60
2023-05-04T05:35:57.516Z,15.60
2023-05-04T05:38:44.893Z,15.70
2023-05-04T05:41:32.161Z,15.70
2023-05-04T05:44:19.412Z,15.80
2023-05-04T05:47:06.740Z,15.80
2023-05-04T05:49:59.161Z,15.80
2023-05-04T05:52:46.462Z,15.90
2023-05-04T05:55:33.787Z,16.00
2023-05-04T05:58:21.736Z,16.00
2023-05-04T06:01:09.150Z,16.10
2023-05-04T06:03:56.561Z,16.20
2023-05-04T06:06:45.902Z,16.30
2023-05-04T06:09:33.926Z,16.30
2023-05-04T06:12:21.518Z,16.40
2023-05-04T06:15:09.593Z,16.50
2023-05-04T06:17:56.998Z,16.70
2023-05-04T06:20:44.708Z,16.80
2023-05-04T06:23:32.233Z,16.90
2023-05-04T06:26:20.329Z,17.10
2023-05-04T06:29:07.749Z,17.20
2023-05-04T06:31:55.892Z,17.30
2023-05-04T06:34:43.164Z,17.40
2023-05-04T06:37:30.432Z,17.50
2023-05-04T06:40:18.220Z,17.60
2023-05-04T06:43:05.835Z,17.60
2023-05-04T06:45:53.050Z,17.80
2023-05-04T06:48:40.490Z,17.90
2023-05-04T06:51:27.693Z,18.00
2023-05-04T06:54:14.934Z,18.10
2023-05-04T06:57:03.448Z,18.10
2023-05-04T06:59:52.609Z,18.20
2023-05-04T07:02:39.919Z,18.30
2023-05-04T07:05:27.173Z,18.30
2023-05-04T07:08:14.393Z,18.40
2023-05-04T07:11:01.656Z,18.40
2023-05-04T07:13:49.177Z,18.50
2023-05-04T07:16:36.633Z,18.60
2023-05-04T07:19:23.900Z,18.60
2023-05-04T07:22:11.193Z,18.70
2023-05-04T07:24:59.157Z,18.80
2023-05-04T07:27:46.537Z,18.90
2023-05-04T07:30:33.745Z,18.90
2023-05-04T07:33:21.177Z,19.00
2023-05-04T07:36:09.009Z,19.10
2023-05-04T07:38:56.485Z,19.10
2023-05-04T07:41:43.771Z,19.20
2023-05-04T07:44:32.058Z,19.20
2023-05-04T07:47:19.541Z,19.30
2023-05-04T07:50:07.649Z,19.30
2023-05-04T07:52:55.150Z,19.40
2023-05-04T07:55:42.420Z,19.40
2023-05-04T07:58:29.684Z,19.50
2023-05-04T08:01:17.111Z,19.60
2023-05-04T08:04:04.338Z,19.70
2023-05-04T08:06:51.660Z,19.70
2023-05-04T08:09:38.880Z,19.80
2023-05-04T08:12:27.030Z,19.90
2023-05-04T08:15:14.777Z,20.10
2023-05-04T08:18:02.038Z,20.10
2023-05-04T08:20:49.248Z,20.20
2023-05-04T08:23:36.770Z,20.30
2023-05-04T08:26:24.568Z,20.40
2023-05-04T08:29:11.821Z,20.50
2023-05-04T08:31:59.507Z,20.60
2023-05-04T08:34:46.986Z,20.70
2023-05-04T08:37:34.627Z,20.80
2023-05-04T08:40:24.224Z,20.90
2023-05-04T08:43:11.720Z,21.00
2023-05-04T08:45:59.245Z,21.10
2023-05-04T08:48:46.679Z,21.20
2023-05-04T08:51:37.342Z,21.30
2023-05-04T08:54:26.305Z,21.30
2023-05-04T08:57:15.041Z,21.40
2023-05-04T09:00:02.523Z,21.50
2023-05-04T09:02:50.353Z,21.60
2023-05-04T09:05:38.399Z,21.70
2023-05-04T09:08:25.826Z,21.80
2023-05-04T09:11:13.759Z,21.90
2023-05-04T09:14:01.036Z,22.00
2023-05-04T09:16:48.353Z,22.10
2023-05-04T09:19:35.653Z,22.20
2023-05-04T09:22:23.878Z,22.20
2023-05-04T09:25:13.251Z,22.30
2023-05-04T09:28:00.673Z,22.40
2023-05-04T09:30:49.235Z,22.40
2023-05-04T09:33:37.163Z,22.60
2023-05-04T09:36:25.215Z,22.70
2023-05-04T09:39:13.408Z,22.80
2023-05-04T09:42:00.909Z,22.80
2023-05-04T09:45:03.260Z,22.90
2023-05-04T09:47:53.228Z,23.00
2023-05-04T09:50:47.416Z,23.10
2023-05-04T09:53:38.373Z,23.10
2023-05-04T09:57:04.488Z,23.10
2023-05-04T09:59:52.403Z,23.20
2023-05-04T10:02:40.713Z,23.30
2023-05-04T10:05:28.632Z,23.40
2023-05-04T10:08:17.298Z,23.40
2023-05-04T10:11:05.046Z,23.50
2023-05-04T10:13:54.613Z,23.60
2023-05-04T10:17:01.962Z,23.60
2023-05-04T10:19:55.114Z,23.70
2023-05-04T10:23:03.800Z,23.80
2023-05-04T10:26:10.688Z,23.90
2023-05-04T10:28:59.570Z,23.90
2023-05-04T10:31:47.052Z,24.00
2023-05-04T10:34:35.259Z,24.00
2023-05-04T10:37:22.726Z,24.20
2023-05-04T10:40:11.027Z,24.20
2023-05-04T10:42:58.292Z,24.30
2023-05-04T10:45:45.638Z,24.40
2023-05-04T10:48:36.845Z,24.50
2023-05-04T10:51:30.380Z,24.60
2023-05-04T10:54:26.297Z,24.60
2023-05-04T10:57:17.623Z,24.70
2023-05-04T11:00:05.452Z,24.80
2023-05-04T11:03:03.532Z,24.90
2023-05-04T11:05:54.795Z,25.00
2023-05-04T11:08:43.162Z,25.00
2023-05-04T11:11:35.995Z,25.10
2023-05-04T11:14:26.218Z,25.20
2023-05-04T11:20:04.976Z,25.20
2023-05-04T11:22:53.450Z,25.40
2023-05-04T11:25:40.657Z,25.40
2023-05-04T11:28:37.465Z,25.50
2023-05-04T11:31:24.701Z,25.50
2023-05-04T11:34:20.091Z,25.60
2023-05-04T11:37:07.771Z,25.60
2023-05-04T11:39:55.098Z,25.60
2023-05-04T11:42:43.119Z,25.70
2023-05-04T11:45:32.510Z,25.80
2023-05-04T11:48:19.946Z,25.90
2023-05-04T11:51:07.405Z,26.00
2023-05-04T11:53:54.793Z,26.10
2023-05-04T11:56:42.843Z,26.20
2023-05-04T11:59:33.983Z,26.30
2023-05-04T12:02:21.235Z,26.30
2023-05-04T12:05:13.997Z,26.50
2023-05-04T12:08:03.328Z,26.60
2023-05-04T12:10:50.743Z,26.60
2023-05-04T12:13:38.478Z,26.70
2023-05-04T12:16:25.932Z,26.70
2023-05-04T12:19:13.434Z,26.80
2023-05-04T12:22:02.359Z,26.80
2023-05-04T12:24:49.490Z,26.90
2023-05-04T12:27:41.746Z,27.00
2023-05-04T12:30:28.875Z,27.00
2023-05-04T12:33:16.056Z,27.10
2023-05-04T12:36:04.736Z,27.10
2023-05-04T12:38:52.218Z,27.20
2023-05-04T12:41:40.222Z,27.20
2023-05-04T12:44:27.975Z,27.20
2023-05-04T12:47:15.465Z,27.30
2023-05-04T12:50:05.244Z,27.40
2023-05-04T12:52:52.452Z,27.40
2023-05-04T12:55:39.666Z,27.40
2023-05-04T12:58:27.545Z,27.50
2023-05-04T13:01:14.759Z,27.60
2023-05-04T13:04:03.062Z,27.60
2023-05-04T13:06:50.255Z,27.70
2023-05-04T13:09:37.549Z,27.90
2023-05-04T13:12:24.767Z,28.00
2023-05-04T13:15:12.122Z,28.00
2023-05-04T13:17:59.418Z,28.10
2023-05-04T13:20:46.923Z,28.20
2023-05-04T13:23:34.151Z,28.40
2023-05-04T13:26:21.523Z,28.50
2023-05-04T13:29:08.703Z,28.50
2023-05-04T13:31:56.039Z,28.50
2023-05-04T13:34:43.629Z,28.50
2023-05-04T13:37:30.853Z,28.50
2023-05-04T13:40:18.187Z,28.60
2023-05-04T13:43:05.392Z,28.60
2023-05-04T13:45:52.569Z,28.70
2023-05-04T13:48:39.751Z,28.70
2023-05-04T13:51:26.953Z,28.70
2023-05-04T13:54:14.202Z,28.70
2023-05-04T13:57:01.395Z,28.80
2023-05-04T13:59:58.596Z,28.90
2023-05-04T14:02:53.590Z,28.90
2023-05-04T14:05:41.027Z,28.90
2023-05-04T14:08:28.194Z,28.90
2023-05-04T14:11:15.373Z,29.00
2023-05-04T14:14:02.547Z,29.00
2023-05-04T14:16:49.907Z,29.00
2023-05-04T14:19:37.129Z,29.10
2023-05-04T14:22:24.411Z,29.20
2023-05-04T14:25:12.767Z,29.20
2023-05-04T14:27:59.969Z,29.20
2023-05-04T14:30:47.092Z,29.20
2023-05-04T14:33:38.040Z,29.10
2023-05-04T14:36:25.209Z,29.10
2023-05-04T14:39:12.655Z,29.10
2023-05-04T14:42:00.062Z,29.10
2023-05-04T14:44:47.349Z,29.10
2023-05-04T14:47:35.024Z,29.30
2023-05-04T14:50:22.592Z,29.30
2023-05-04T14:53:10.149Z,29.40
2023-05-04T14:55:57.284Z,29.40
2023-05-04T14:58:44.600Z,29.50
2023-05-04T15:01:31.842Z,29.50
2023-05-04T15:04:19.151Z,29.60
2023-05-04T15:07:06.432Z,29.70
2023-05-04T15:09:53.600Z,29.80
2023-05-04T15:12:40.921Z,29.80
2023-05-04T15:15:28.286Z,29.80
2023-05-04T15:18:15.928Z,29.80
2023-05-04T15:21:03.111Z,29.80
2023-05-04T15:23:50.288Z,29.90
2023-05-04T15:26:37.546Z,30.00
2023-05-04T15:29:25.483Z,30.20
2023-05-04T15:32:12.690Z,30.20
2023-05-04T15:35:05.512Z,30.20
2023-05-04T15:37:53.553Z,30.40
2023-05-04T15:40:40.741Z,30.80
2023-05-04T15:43:27.915Z,31.20
2023-05-04T15:46:15.315Z,31.50
2023-05-04T15:49:02.538Z,31.70
2023-05-04T15:51:50.249Z,31.70
2023-05-04T15:54:37.463Z,31.60
2023-05-04T15:57:24.626Z,31.60
2023-05-04T16:00:12.644Z,32.10
2023-05-04T16:03:00.806Z,32.70
2023-05-04T16:05:50.381Z,33.30
2023-05-04T16:08:37.631Z,33.60
2023-05-04T16:11:24.982Z,33.70
2023-05-04T16:14:12.430Z,33.50
2023-05-04T16:17:03.272Z,33.10
2023-05-04T16:19:50.511Z,32.60
2023-05-04T16:22:37.656Z,32.30
2023-05-04T16:25:24.898Z,32.00
2023-05-04T16:28:12.449Z,31.80
2023-05-04T16:30:59.721Z,31.80
2023-05-04T16:33:49.616Z,32.00
2023-05-04T16:36:36.931Z,32.00
2023-05-04T16:39:30.141Z,31.90
2023-05-04T16:42:19.054Z,31.70
2023-05-04T16:45:08.222Z,31.50
2023-05-04T16:47:56.348Z,31.30
2023-05-04T16:50:43.561Z,31.10
2023-05-04T16:53:30.804Z,30.90
2023-05-04T16:56:19.579Z,30.80
2023-05-04T16:59:06.995Z,30.60
2023-05-04T17:01:54.884Z,30.50
2023-05-04T17:04:42.199Z,30.30
2023-05-04T17:07:29.413Z,30.10
2023-05-04T17:10:18.404Z,30.00
2023-05-04T17:13:07.175Z,29.90
2023-05-04T17:15:54.479Z,29.80
2023-05-04T17:18:41.669Z,29.80
2023-05-04T17:21:29.007Z,29.70
2023-05-04T17:24:16.360Z,29.60
2023-05-04T17:27:03.902Z,29.60
2023-05-04T17:29:58.146Z,29.50
2023-05-04T17:32:45.415Z,29.40
2023-05-04T17:35:32.592Z,29.30
2023-05-04T17:38:19.855Z,29.30
2023-05-04T17:41:07.566Z,29.30
2023-05-04T17:43:55.789Z,29.20
2023-05-04T17:46:43.049Z,29.10
2023-05-04T17:49:31.198Z,29.10
2023-05-04T17:52:18.462Z,29.20
2023-05-04T17:55:06.129Z,29.20
2023-05-04T17:57:54.481Z,29.20
2023-05-04T18:00:41.822Z,29.20
2023-05-04T18:03:29.298Z,29.30
2023-05-04T18:06:16.668Z,29.30
2023-05-04T18:09:04.298Z,29.30
2023-05-04T18:11:51.475Z,29.20
2023-05-04T18:14:39.650Z,29.20
2023-05-04T18:17:28.668Z,29.10
2023-05-04T18:20:15.945Z,29.00
2023-05-04T18:23:03.280Z,29.00
2023-05-04T18:25:50.534Z,28.90
2023-05-04T18:28:37.788Z,28.90
2023-05-04T18:31:25.337Z,28.80
2023-05-04T18:34:12.600Z,28.80
2023-05-04T18:36:59.814Z,28.70
2023-05-04T18:39:47.381Z,28.60
2023-05-04T18:42:34.572Z,28.50
2023-05-04T18:45:21.740Z,28.50
2023-05-04T18:48:09.020Z,28.40
2023-05-04T18:50:58.936Z,28.30
2023-05-04T18:53:47.047Z,28.20
2023-05-04T18:56:34.284Z,28.20
2023-05-04T18:59:21.486Z,28.00
2023-05-04T19:02:09.509Z,28.00
2023-05-04T19:04:56.722Z,27.90
2023-05-04T19:07:43.884Z,27.80
2023-05-04T19:10:31.901Z,27.80
2023-05-04T19:13:20.832Z,27.70
2023-05-04T19:16:12.679Z,27.60
2023-05-04T19:19:01.119Z,27.70
2023-05-04T19:21:50.640Z,27.60
2023-05-04T19:24:37.878Z,27.60
2023-05-04T19:27:25.714Z,27.60
2023-05-04T19:30:13.136Z,27.50
2023-05-04T19:33:00.497Z,27.50
2023-05-04T19:35:47.806Z,27.40
2023-05-04T19:38:35.256Z,27.40
2023-05-04T19:41:22.897Z,27.30
2023-05-04T19:44:10.633Z,27.30
2023-05-04T19:46:57.885Z,27.30
2023-05-04T19:49:48.575Z,27.30
2023-05-04T19:52:37.280Z,27.20
2023-05-04T19:55:24.467Z,27.10
2023-05-04T19:58:11.925Z,27.00
2023-05-04T20:00:59.277Z,26.90
2023-05-04T20:03:46.576Z,26.90
2023-05-04T20:06:34.565Z,26.90
2023-05-04T20:09:21.858Z,26.90
2023-05-04T20:12:09.314Z,26.90
2023-05-04T20:14:56.619Z,26.90
2023-05-04T20:17:44.085Z,26.90
2023-05-04T20:20:31.445Z,26.90
2023-05-04T20:23:18.642Z,26.90
2023-05-04T20:26:06.224Z,26.90
2023-05-04T20:28:53.495Z,26.90
2023-05-04T20:31:41.373Z,26.90
2023-05-04T20:34:29.033Z,26.90
2023-05-04T20:37:16.204Z,26.90
2023-05-04T20:40:03.876Z,26.90
2023-05-04T20:42:51.155Z,26.90
2023-05-04T20:45:38.380Z,26.90
2023-05-04T20:48:25.682Z,26.90
2023-05-04T20:51:15.251Z,26.80
2023-05-04T20:54:03.262Z,26.90
2023-05-04T20:56:50.718Z,26.80
2023-05-04T20:59:37.914Z,26.70
2023-05-04T21:02:25.212Z,26.70
2023-05-04T21:05:12.502Z,26.60
2023-05-04T21:08:01.210Z,26.60
2023-05-04T21:10:48.613Z,26.60
2023-05-04T21:13:35.873Z,26.50
2023-05-04T21:16:23.246Z,26.50
2023-05-04T21:19:10.776Z,26.50
2023-05-04T21:21:57.970Z,26.50
2023-05-04T21:24:46.626Z,26.50
2023-05-04T21:27:33.957Z,26.50
2023-05-04T21:30:21.548Z,26.50
2023-05-04T21:33:08.805Z,26.40
2023-05-04T21:35:56.022Z,26.40
2023-05-04T21:38:43.323Z,26.30
2023-05-04T21:41:30.651Z,26.20
2023-05-04T21:44:17.855Z,26.20
2023-05-04T21:47:05.305Z,26.20
2023-05-04T21:49:53.394Z,26.20
2023-05-04T21:52:40.644Z,26.20
2023-05-04T21:55:30.363Z,26.20
2023-05-04T21:58:17.695Z,26.20
2023-05-04T22:01:05.737Z,26.20
2023-05-04T22:03:53.147Z,26.10
2023-05-04T22:06:40.619Z,26.10
2023-05-04T22:09:28.817Z,26.00
2023-05-04T22:12:16.018Z,26.00
2023-05-04T22:15:03.369Z,26.00
2023-05-04T22:17:50.668Z,25.90
2023-05-04T22:20:38.537Z,25.80
2023-05-04T22:23:25.795Z,25.70
2023-05-04T22:26:13.006Z,25.70
2023-05-04T22:29:00.298Z,25.70
2023-05-04T22:31:47.535Z,25.70
2023-05-04T22:34:34.793Z,25.70
2023-05-04T22:37:22.426Z,25.70
2023-05-04T22:40:10.320Z,25.60
2023-05-04T22:42:57.594Z,25.60
2023-05-04T22:45:44.833Z,25.60
2023-05-04T22:48:32.683Z,25.50
2023-05-04T22:51:19.896Z,25.50
2023-05-04T22:54:10.435Z,25.40
2023-05-04T22:56:57.651Z,25.10
2023-05-04T22:59:44.884Z,24.80
2023-05-04T23:02:32.144Z,24.80
2023-05-04T23:05:20.421Z,24.80
2023-05-04T23:08:07.609Z,24.80
2023-05-04T23:10:54.837Z,24.70
2023-05-04T23:13:41.982Z,24.60
2023-05-04T23:16:29.479Z,24.70
2023-05-04T23:19:16.724Z,24.60
2023-05-04T23:22:03.973Z,24.70
2023-05-04T23:24:51.223Z,24.70
2023-05-04T23:27:39.582Z,24.70
2023-05-04T23:30:26.873Z,24.70
2023-05-04T23:33:14.135Z,24.80
2023-05-04T23:36:01.288Z,24.80
2023-05-04T23:38:48.483Z,24.80
2023-05-04T23:41:35.739Z,24.90
2023-05-04T23:44:23.076Z,25.00
2023-05-04T23:47:10.265Z,25.00
2023-05-04T23:49:57.498Z,25.00
2023-05-04T23:52:44.746Z,25.00
2023-05-04T23:55:32.067Z,24.90
2023-05-04T23:58:19.241Z,24.90
